createdAt,value
2023-04-25T04:19:17.654Z,14.07
2023-04-25T04:22:32.063Z,14.07
2023-04-25T04:25:46.333Z,13.76
2023-04-25T04:29:00.552Z,13.49
2023-04-25T04:32:14.716Z,13.49
2023-04-25T04:35:30.448Z,13.83
2023-04-25T04:38:45.927Z,13.28
2023-04-25T04:42:00.221Z,13.70
2023-04-25T04:45:14.552Z,13.51
2023-04-25T04:48:29.459Z,13.15
2023-04-25T04:51:46.498Z,13.58
2023-04-25T04:55:00.754Z,12.98
2023-04-25T04:58:15.649Z,12.81
2023-04-25T05:01:31.413Z,12.84
2023-04-25T05:04:46.329Z,12.68
2023-04-25T05:08:06.452Z,12.72
2023-04-25T05:11:36.324Z,12.58
2023-04-25T05:14:54.450Z,12.55
2023-04-25T05:18:08.695Z,12.81
2023-04-25T05:21:23.223Z,12.26
2023-04-25T05:24:40.624Z,12.41
2023-04-25T05:27:59.638Z,12.38
2023-04-25T05:31:20.775Z,12.39
2023-04-25T05:34:35.576Z,12.59
2023-04-25T05:38:09.122Z,12.41
2023-04-25T05:41:57.242Z,12.37
2023-04-25T05:45:20.400Z,12.22
2023-04-25T05:48:36.798Z,12.05
2023-04-25T05:52:03.203Z,12.14
2023-04-25T05:55:26.019Z,11.96
2023-04-25T05:59:11.229Z,11.90
2023-04-25T06:02:47.380Z,12.01
2023-04-25T06:06:06.245Z,12.16
2023-04-25T06:09:22.027Z,11.91
2023-04-25T06:12:48.944Z,11.99
2023-04-25T06:16:41.384Z,11.86
2023-04-25T06:19:59.176Z,12.07
2023-04-25T06:23:18.353Z,11.83
2023-04-25T06:26:44.189Z,12.06
2023-04-25T06:30:15.809Z,11.63
2023-04-25T06:33:57.265Z,11.99
2023-04-25T06:37:20.950Z,11.25
2023-04-25T06:40:35.775Z,11.27
2023-04-25T06:43:50.245Z,11.13
2023-04-25T06:47:04.528Z,11.47
2023-04-25T06:50:36.736Z,11.58
2023-04-25T06:54:22.883Z,12.04
2023-04-25T07:01:32.683Z,11.83
2023-04-25T07:08:23.784Z,11.92
2023-04-25T07:11:40.468Z,12.02
2023-04-25T07:15:10.151Z,11.83
2023-04-25T07:18:40.065Z,12.09
2023-04-25T07:22:15.086Z,12.27
2023-04-25T07:25:33.815Z,12.31
2023-04-25T07:28:59.406Z,12.42
2023-04-25T07:32:35.452Z,12.64
2023-04-25T07:40:41.680Z,12.97
2023-04-25T07:44:34.995Z,13.08
2023-04-25T07:48:20.975Z,13.03
2023-04-25T07:51:36.549Z,13.34
2023-04-25T07:55:02.177Z,13.25
2023-04-25T07:58:28.708Z,13.71
2023-04-25T08:02:11.904Z,13.80
2023-04-25T08:05:43.230Z,14.36
2023-04-25T08:09:20.969Z,14.66
2023-04-25T08:12:53.986Z,13.89
2023-04-25T08:16:26.968Z,14.08
2023-04-25T08:19:49.748Z,13.86
2023-04-25T08:23:08.529Z,14.53
2023-04-25T08:26:35.209Z,14.12
2023-04-25T08:30:02.572Z,14.03
2023-04-25T08:33:19.330Z,14.64
2023-04-25T08:36:57.137Z,14.56
2023-04-25T08:40:35.446Z,14.60
2023-04-25T08:43:56.290Z,15.02
2023-04-25T08:47:19.873Z,15.14
2023-04-25T08:50:54.715Z,15.26
2023-04-25T08:58:12.314Z,14.97
2023-04-25T09:01:30.411Z,15.44
2023-04-25T09:08:51.348Z,15.47
2023-04-25T09:12:14.295Z,15.60
2023-04-25T09:16:09.578Z,15.34
2023-04-25T09:19:48.341Z,15.42
2023-04-25T09:23:15.025Z,15.12
2023-04-25T09:26:51.181Z,15.08
2023-04-25T09:30:36.371Z,15.41
2023-04-25T09:34:06.386Z,15.85
2023-04-25T09:37:33.750Z,15.79
2023-04-25T09:40:52.864Z,15.85
2023-04-25T09:44:08.103Z,15.33
2023-04-25T09:47:28.845Z,15.65
2023-04-25T09:51:07.009Z,15.38
2023-04-25T09:58:32.709Z,16.02
2023-04-25T10:02:49.352Z,16.24
2023-04-25T10:06:28.834Z,15.69
2023-04-25T10:09:44.033Z,16.08
2023-04-25T10:13:12.083Z,16.74
2023-04-25T10:16:58.345Z,16.44
2023-04-25T10:20:54.394Z,16.63
2023-04-25T10:27:56.797Z,15.98
2023-04-25T10:31:26.076Z,15.95
2023-04-25T10:35:00.277Z,15.83
2023-04-25T10:38:18.501Z,16.06
2023-04-25T10:42:19.570Z,15.86
2023-04-25T10:46:04.584Z,15.74
2023-04-25T10:49:50.286Z,15.72
2023-04-25T10:53:19.046Z,15.74
2023-04-25T10:56:36.860Z,15.47
2023-04-25T11:00:17.333Z,15.43
2023-04-25T11:03:40.671Z,15.08
2023-04-25T11:07:17.058Z,15.42
2023-04-25T11:10:36.832Z,15.22
2023-04-25T11:14:18.730Z,15.89
2023-04-25T11:21:56.193Z,15.57
2023-04-25T11:25:24.311Z,15.82
2023-04-25T11:28:38.858Z,15.92
2023-04-25T11:31:59.884Z,16.10
2023-04-25T11:35:53.356Z,15.78
2023-04-25T11:39:32.815Z,16.28
2023-04-25T11:42:50.056Z,16.35
2023-04-25T11:46:12.573Z,16.53
2023-04-25T11:49:29.912Z,16.35
2023-04-25T11:53:09.477Z,16.33
2023-04-25T11:56:45.011Z,16.28
2023-04-25T12:00:33.462Z,15.99
2023-04-25T12:04:12.324Z,16.45
2023-04-25T12:08:04.290Z,16.61
2023-04-25T12:11:43.167Z,16.75
2023-04-25T12:15:05.143Z,16.89
2023-04-25T12:18:30.385Z,16.43
2023-04-25T12:22:13.778Z,16.59
2023-04-25T12:26:01.427Z,16.34
2023-04-25T12:33:16.092Z,16.60
2023-04-25T12:40:19.287Z,16.51
2023-04-25T12:43:35.314Z,16.40
2023-04-25T12:47:01.381Z,16.68
2023-04-25T12:50:15.509Z,16.44
2023-04-25T12:53:30.244Z,17.04
2023-04-25T12:57:03.007Z,17.11
2023-04-25T13:00:28.543Z,16.98
2023-04-25T13:04:28.205Z,17.27
2023-04-25T13:07:52.374Z,17.17
2023-04-25T13:11:08.198Z,17.93
2023-04-25T13:14:22.778Z,17.91
2023-04-25T13:17:47.425Z,17.98
2023-04-25T13:21:58.542Z,17.83
2023-04-25T13:25:34.593Z,18.02
2023-04-25T13:28:56.399Z,18.21
2023-04-25T13:32:13.524Z,17.74
2023-04-25T13:35:41.461Z,17.62
2023-04-25T13:39:10.206Z,17.14
2023-04-25T13:42:26.239Z,17.15
2023-04-25T13:45:42.265Z,17.32
2023-04-25T13:49:06.150Z,17.81
2023-04-25T13:52:39.757Z,17.69
2023-04-25T13:55:57.328Z,17.82
2023-04-25T13:59:19.557Z,18.02
2023-04-25T14:02:38.682Z,18.31
2023-04-25T14:05:53.442Z,18.04
2023-04-25T14:09:08.313Z,18.16
2023-04-25T14:12:23.935Z,17.91
2023-04-25T14:15:38.332Z,18.11
2023-04-25T14:18:52.617Z,18.04
2023-04-25T14:22:07.125Z,18.05
2023-04-25T14:25:30.517Z,18.14
2023-04-25T14:28:46.374Z,17.88
2023-04-25T14:32:00.596Z,17.77
2023-04-25T14:35:14.881Z,17.99
2023-04-25T14:38:29.098Z,17.67
2023-04-25T14:41:43.343Z,17.20
2023-04-25T14:44:58.921Z,17.57
2023-04-25T14:48:13.295Z,17.58
2023-04-25T14:51:28.033Z,16.97
2023-04-25T14:54:42.270Z,16.99
2023-04-25T14:57:57.578Z,17.17
2023-04-25T15:01:14.230Z,17.24
2023-04-25T15:04:28.799Z,17.06
2023-04-25T15:07:43.431Z,17.13
2023-04-25T15:10:57.560Z,17.50
2023-04-25T15:14:11.951Z,17.37
2023-04-25T15:17:28.017Z,17.02
2023-04-25T15:20:42.230Z,17.03
